createdAt,value
2023-04-29T00:01:43.168Z,97750.09
2023-04-29T00:04:10.855Z,97768.50
2023-04-29T00:06:40.234Z,97764.66
2023-04-29T00:09:07.747Z,97784.91
2023-04-29T00:11:35.320Z,97801.94
2023-04-29T00:14:02.851Z,97819.25
2023-04-29T00:16:30.358Z,97821.19
2023-04-29T00:18:57.839Z,97835.59
2023-04-29T00:21:27.392Z,97844.78
2023-04-29T00:23:56.706Z,97840.94
2023-04-29T00:26:24.195Z,97844.81
2023-04-29T00:28:52.681Z,97859.88
2023-04-29T00:31:20.248Z,97867.63
2023-04-29T00:33:47.736Z,97877.06
2023-04-29T00:36:15.224Z,97884.97
2023-04-29T00:38:43.129Z,97898.53
2023-04-29T00:41:11.920Z,97897.75
2023-04-29T00:43:39.364Z,97926.97
2023-04-29T00:46:06.927Z,97952.31
2023-04-29T00:48:34.573Z,97971.91
2023-04-29T00:51:02.030Z,97986.66
2023-04-29T00:53:29.471Z,98009.88
2023-04-29T00:55:56.955Z,98030.59
2023-04-29T00:58:32.876Z,98050.28
2023-04-29T01:01:00.649Z,98047.84
2023-04-29T01:03:29.236Z,98046.22
2023-04-29T01:06:01.763Z,98055.03
2023-04-29T01:08:31.796Z,98039.03
2023-04-29T01:11:01.213Z,98038.72
2023-04-29T01:13:30.666Z,98040.03
2023-04-29T01:16:02.189Z,98044.78
2023-04-29T01:18:30.764Z,98054.50
2023-04-29T01:20:58.400Z,98049.56
2023-04-29T01:23:28.582Z,98059.47
2023-04-29T01:25:56.911Z,98070.03
2023-04-29T01:28:41.897Z,98089.34
2023-04-29T01:31:11.466Z,98084.94
2023-04-29T01:33:41.652Z,98085.84
2023-04-29T01:36:15.569Z,98084.47
2023-04-29T01:38:45.806Z,98082.41
2023-04-29T01:41:15.189Z,98085.94
2023-04-29T01:43:43.943Z,98090.09
2023-04-29T01:46:19.746Z,98104.53
2023-04-29T01:48:47.677Z,98105.16
2023-04-29T01:51:15.550Z,98089.44
2023-04-29T01:53:44.474Z,98076.91
2023-04-29T01:56:12.210Z,98071.34
2023-04-29T01:59:00.880Z,98082.16
2023-04-29T02:01:43.865Z,98071.25
2023-04-29T02:04:11.613Z,98075.00
2023-04-29T02:06:39.268Z,98063.19
2023-04-29T02:09:08.353Z,98042.09
2023-04-29T02:11:36.743Z,98033.97
2023-04-29T02:14:04.285Z,98046.00
2023-04-29T02:16:32.033Z,98043.50
2023-04-29T02:19:03.458Z,98041.63
2023-04-29T02:21:31.792Z,98046.38
2023-04-29T02:24:01.617Z,98047.16
2023-04-29T02:26:30.540Z,98053.50
2023-04-29T02:28:58.169Z,98068.09
2023-04-29T02:31:25.785Z,98078.28
2023-04-29T02:33:55.569Z,98094.97
2023-04-29T02:36:23.133Z,98090.66
2023-04-29T02:38:55.187Z,98101.69
2023-04-29T02:41:22.814Z,98105.47
2023-04-29T02:43:51.644Z,98113.56
2023-04-29T02:46:19.651Z,98104.03
2023-04-29T02:48:47.285Z,98103.41
2023-04-29T02:51:16.274Z,98114.78
2023-04-29T02:53:43.869Z,98132.03
2023-04-29T02:56:11.675Z,98148.00
2023-04-29T02:58:39.242Z,98149.81
2023-04-29T03:01:08.253Z,98148.56
2023-04-29T03:03:36.058Z,98154.44
2023-04-29T03:06:04.609Z,98163.00
2023-04-29T03:08:32.711Z,98168.97
2023-04-29T03:11:00.288Z,98154.50
2023-04-29T03:13:27.876Z,98162.72
2023-04-29T03:15:58.634Z,98165.22
2023-04-29T03:18:28.733Z,98163.88
2023-04-29T03:20:56.259Z,98167.31
2023-04-29T03:23:23.868Z,98181.66
2023-04-29T03:25:53.129Z,98178.91
2023-04-29T03:28:20.751Z,98168.47
2023-04-29T03:30:49.316Z,98184.47
2023-04-29T03:33:17.111Z,98177.56
2023-04-29T03:35:46.448Z,98175.94
2023-04-29T03:38:36.086Z,98191.22
2023-04-29T03:41:05.457Z,98193.72
2023-04-29T03:43:33.268Z,98218.44
2023-04-29T03:46:02.083Z,98217.78
2023-04-29T03:48:29.976Z,98229.97
2023-04-29T03:50:58.885Z,98235.09
2023-04-29T03:53:26.522Z,98238.53
2023-04-29T03:55:55.270Z,98240.47
2023-04-29T03:58:23.678Z,98236.00
2023-04-29T04:00:52.500Z,98237.44
2023-04-29T04:03:25.768Z,98245.06
2023-04-29T04:05:54.963Z,98238.16
2023-04-29T04:08:24.247Z,98243.72
2023-04-29T04:10:55.718Z,98227.47
2023-04-29T04:13:32.658Z,98229.88
2023-04-29T04:16:00.678Z,98229.75
2023-04-29T04:18:28.539Z,98232.88
2023-04-29T04:20:56.138Z,98228.28
2023-04-29T04:23:27.282Z,98234.16
2023-04-29T04:25:55.684Z,98237.94
2023-04-29T04:28:55.336Z,98234.16
2023-04-29T04:31:34.517Z,98228.06
2023-04-29T04:34:02.242Z,98219.03
2023-04-29T04:36:32.679Z,98224.59
2023-04-29T04:39:01.606Z,98215.75
2023-04-29T04:41:31.530Z,98203.22
2023-04-29T04:43:59.314Z,98198.31
2023-04-29T04:46:43.471Z,98222.97
2023-04-29T04:49:17.950Z,98219.34
2023-04-29T04:51:51.627Z,98232.53
2023-04-29T04:54:20.515Z,98237.78
2023-04-29T04:56:52.573Z,98242.00
2023-04-29T04:59:21.051Z,98240.34
2023-04-29T05:01:48.715Z,98227.50
2023-04-29T05:04:16.835Z,98223.59
2023-04-29T05:06:44.437Z,98226.84
2023-04-29T05:09:12.035Z,98224.72
2023-04-29T05:11:41.928Z,98214.00
2023-04-29T05:14:12.752Z,98223.38
2023-04-29T05:16:40.436Z,98208.25
2023-04-29T05:19:09.688Z,98195.94
2023-04-29T05:21:39.937Z,98197.19
2023-04-29T05:24:10.192Z,98219.91
2023-04-29T05:26:38.339Z,98221.22
2023-04-29T05:29:08.670Z,98218.22
2023-04-29T05:31:45.669Z,98216.63
2023-04-29T05:34:13.236Z,98213.94
2023-04-29T05:36:40.848Z,98208.63
2023-04-29T05:39:08.407Z,98209.47
2023-04-29T05:41:36.013Z,98209.69
2023-04-29T05:44:15.742Z,98216.56
2023-04-29T05:46:43.318Z,98222.84
2023-04-29T05:49:10.981Z,98207.28
2023-04-29T05:51:38.578Z,98195.00
2023-04-29T05:54:06.135Z,98200.94
2023-04-29T05:56:33.912Z,98204.94
2023-04-29T05:59:01.433Z,98206.59
2023-04-29T06:01:30.396Z,98215.47
2023-04-29T06:03:59.482Z,98232.94
2023-04-29T06:06:46.589Z,98243.19
2023-04-29T06:09:33.393Z,98264.28
2023-04-29T06:12:03.091Z,98257.19
2023-04-29T06:14:30.707Z,98266.06
2023-04-29T06:17:00.576Z,98285.53
2023-04-29T06:19:28.333Z,98294.94
2023-04-29T06:21:55.871Z,98310.09
2023-04-29T06:24:23.437Z,98328.56
2023-04-29T06:26:51.445Z,98350.66
2023-04-29T06:29:19.069Z,98355.94
2023-04-29T06:31:49.723Z,98373.03
2023-04-29T06:34:20.018Z,98376.38
2023-04-29T06:37:07.697Z,98400.16
2023-04-29T06:39:54.084Z,98410.00
2023-04-29T06:42:39.819Z,98418.41
2023-04-29T06:45:26.064Z,98429.22
2023-04-29T06:48:00.588Z,98457.94
2023-04-29T06:50:40.132Z,98474.63
2023-04-29T06:53:08.171Z,98476.94
2023-04-29T06:55:36.354Z,98482.56
2023-04-29T06:58:04.597Z,98489.66
2023-04-29T07:00:32.268Z,98487.16
2023-04-29T07:03:03.605Z,98483.38
2023-04-29T07:05:31.240Z,98492.94
2023-04-29T07:08:00.130Z,98498.06
2023-04-29T07:10:27.854Z,98490.94
2023-04-29T07:12:55.607Z,98479.56
2023-04-29T07:15:23.167Z,98477.69
2023-04-29T07:17:50.981Z,98481.34
2023-04-29T07:20:20.736Z,98478.53
2023-04-29T07:22:50.127Z,98483.31
2023-04-29T07:25:19.330Z,98485.94
2023-04-29T07:27:47.831Z,98492.25
2023-04-29T07:30:15.448Z,98492.88
2023-04-29T07:32:43.107Z,98493.59
2023-04-29T07:35:10.937Z,98488.09
2023-04-29T07:37:38.680Z,98498.34
2023-04-29T07:40:07.795Z,98485.13
2023-04-29T07:42:36.902Z,98485.28
2023-04-29T07:45:07.392Z,98494.91
2023-04-29T07:47:35.232Z,98503.03
2023-04-29T07:50:03.394Z,98510.44
2023-04-29T07:52:31.295Z,98510.13
2023-04-29T07:54:59.018Z,98511.41
2023-04-29T07:57:27.222Z,98510.13
2023-04-29T07:59:56.983Z,98517.06
2023-04-29T08:02:24.822Z,98518.69
2023-04-29T08:04:54.792Z,98504.66
2023-04-29T08:07:23.900Z,98510.59
2023-04-29T08:09:52.543Z,98512.09
2023-04-29T08:12:20.377Z,98514.75
2023-04-29T08:14:51.478Z,98514.41
2023-04-29T08:17:21.560Z,98502.53
2023-04-29T08:19:49.528Z,98508.16
2023-04-29T08:22:18.458Z,98497.91
2023-04-29T08:24:46.177Z,98493.97
2023-04-29T08:27:13.852Z,98483.53
2023-04-29T08:29:41.832Z,98484.53
2023-04-29T08:32:09.681Z,98483.56
2023-04-29T08:34:38.762Z,98480.56
2023-04-29T08:37:06.787Z,98487.34
2023-04-29T08:39:34.488Z,98478.44
2023-04-29T08:42:08.904Z,98471.16
2023-04-29T08:44:37.635Z,98472.81
2023-04-29T08:47:05.364Z,98473.31
2023-04-29T08:49:33.595Z,98469.84
2023-04-29T08:52:02.856Z,98462.19
2023-04-29T08:54:32.136Z,98457.25
2023-04-29T08:56:59.901Z,98459.22
2023-04-29T08:59:27.562Z,98442.78
2023-04-29T09:01:55.533Z,98437.94
2023-04-29T09:04:31.090Z,98439.59
2023-04-29T09:06:59.501Z,98448.50
2023-04-29T09:09:28.584Z,98445.38
2023-04-29T09:11:56.314Z,98450.09
2023-04-29T09:14:24.329Z,98447.88
2023-04-29T09:16:52.738Z,98453.03
2023-04-29T09:19:30.783Z,98472.13
2023-04-29T09:21:58.586Z,98469.44
2023-04-29T09:24:27.908Z,98488.31
2023-04-29T09:26:55.682Z,98505.19
2023-04-29T09:29:24.147Z,98516.00
2023-04-29T09:31:53.539Z,98523.31
2023-04-29T09:34:32.173Z,98525.47
2023-04-29T09:36:59.984Z,98536.63
2023-04-29T09:39:29.079Z,98545.97
2023-04-29T09:42:02.616Z,98562.41
2023-04-29T09:44:33.874Z,98576.28
2023-04-29T09:47:03.588Z,98585.72
2023-04-29T09:49:32.803Z,98581.59
2023-04-29T09:52:01.933Z,98600.50
2023-04-29T09:54:31.794Z,98599.94
2023-04-29T09:57:00.609Z,98598.16
2023-04-29T09:59:30.856Z,98607.72
2023-04-29T10:01:59.270Z,98595.69
2023-04-29T10:04:27.963Z,98588.09
2023-04-29T10:07:00.549Z,98595.59
2023-04-29T10:09:28.235Z,98591.78
2023-04-29T10:11:57.474Z,98586.41
2023-04-29T10:14:26.108Z,98580.63
2023-04-29T10:16:59.650Z,98569.06
2023-04-29T10:19:28.814Z,98573.53
2023-04-29T10:21:57.550Z,98556.06
2023-04-29T10:24:25.437Z,98547.44
2023-04-29T10:26:53.956Z,98551.09
2023-04-29T10:29:26.154Z,98539.38
2023-04-29T10:31:54.863Z,98525.00
2023-04-29T10:34:24.528Z,98515.41
2023-04-29T10:36:52.404Z,98502.44
2023-04-29T10:39:27.617Z,98488.63
2023-04-29T10:41:55.435Z,98458.25
2023-04-29T10:44:27.574Z,98435.81
2023-04-29T10:47:19.750Z,98407.53
2023-04-29T10:50:05.581Z,98381.25
2023-04-29T10:52:52.339Z,98362.88
2023-04-29T10:55:20.240Z,98341.09
2023-04-29T10:57:50.845Z,98326.88
2023-04-29T11:00:24.574Z,98296.75
2023-04-29T11:02:52.554Z,98294.09
2023-04-29T11:05:21.809Z,98295.59
2023-04-29T11:07:50.612Z,98305.63
2023-04-29T11:10:18.525Z,98320.94
2023-04-29T11:12:48.373Z,98323.44
2023-04-29T11:15:19.136Z,98338.41
2023-04-29T11:17:48.193Z,98351.47
2023-04-29T11:20:18.883Z,98352.44
2023-04-29T11:22:51.919Z,98370.28
2023-04-29T11:25:19.758Z,98385.53
2023-04-29T11:27:55.456Z,98403.72
2023-04-29T11:30:23.336Z,98396.72
2023-04-29T11:32:53.749Z,98398.31
2023-04-29T11:35:21.859Z,98410.47
2023-04-29T11:37:49.790Z,98420.88
2023-04-29T11:40:17.793Z,98422.66
2023-04-29T11:42:46.343Z,98435.94
2023-04-29T11:45:14.818Z,98453.44
2023-04-29T11:47:44.786Z,98478.34
2023-04-29T11:50:16.765Z,98484.03
2023-04-29T11:52:46.228Z,98503.59
2023-04-29T11:55:14.704Z,98517.94
2023-04-29T11:57:42.551Z,98520.03
2023-04-29T12:00:14.033Z,98519.63
2023-04-29T12:02:46.821Z,98521.94
2023-04-29T12:05:19.519Z,98514.78
2023-04-29T12:07:50.531Z,98520.06
2023-04-29T12:10:19.664Z,98516.16
2023-04-29T12:12:50.039Z,98531.44
2023-04-29T12:15:18.090Z,98539.66
2023-04-29T12:17:46.532Z,98536.56
2023-04-29T12:20:16.024Z,98547.09
2023-04-29T12:22:44.880Z,98551.00
2023-04-29T12:25:15.373Z,98559.63
2023-04-29T12:27:43.649Z,98564.09
2023-04-29T12:30:12.174Z,98565.09
2023-04-29T12:32:40.146Z,98565.44
2023-04-29T12:35:12.748Z,98566.44
2023-04-29T12:37:41.883Z,98586.66
2023-04-29T12:40:16.734Z,98574.59
2023-04-29T12:42:45.099Z,98573.75
2023-04-29T12:45:27.648Z,98578.94
2023-04-29T12:47:56.417Z,98572.22
2023-04-29T12:50:32.935Z,98566.88
2023-04-29T12:53:02.353Z,98571.03
2023-04-29T12:55:32.533Z,98573.66
2023-04-29T12:58:01.206Z,98565.53
2023-04-29T13:00:29.651Z,98549.41
2023-04-29T13:02:57.470Z,98552.09
2023-04-29T13:05:25.499Z,98539.13
2023-04-29T13:07:53.432Z,98524.50
2023-04-29T13:10:28.364Z,98519.31
2023-04-29T13:12:56.814Z,98511.59
2023-04-29T13:15:26.013Z,98492.34
2023-04-29T13:17:54.196Z,98482.38
2023-04-29T13:20:23.554Z,98472.19
2023-04-29T13:22:55.595Z,98451.97
2023-04-29T13:25:23.363Z,98444.00
2023-04-29T13:27:55.744Z,98442.44
2023-04-29T13:30:26.739Z,98452.75
2023-04-29T13:32:58.689Z,98442.34
2023-04-29T13:35:31.109Z,98433.25
2023-04-29T13:38:01.375Z,98431.41
2023-04-29T13:40:29.127Z,98435.78
2023-04-29T13:43:05.966Z,98412.84
2023-04-29T13:45:41.273Z,98408.59
2023-04-29T13:48:37.547Z,98405.34
2023-04-29T14:03:53.926Z,98339.56
2023-04-29T14:06:21.806Z,98324.91
2023-04-29T14:08:49.507Z,98328.03
2023-04-29T14:11:17.299Z,98337.81
2023-04-29T14:13:46.348Z,98320.63
2023-04-29T14:16:14.054Z,98322.09
2023-04-29T14:18:41.788Z,98324.22
2023-04-29T14:21:09.518Z,98319.63
2023-04-29T14:23:37.209Z,98322.75
2023-04-29T14:26:22.342Z,98314.72
2023-04-29T14:28:57.298Z,98309.13
2023-04-29T14:31:25.339Z,98307.50
2023-04-29T14:33:53.161Z,98294.00
2023-04-29T14:36:20.968Z,98286.69
2023-04-29T14:38:48.683Z,98274.19
2023-04-29T14:41:16.408Z,98258.84
2023-04-29T14:43:44.407Z,98227.97
2023-04-29T14:46:13.556Z,98207.22
2023-04-29T14:48:41.249Z,98188.63
2023-04-29T14:51:08.969Z,98178.72
2023-04-29T14:53:36.687Z,98172.06
2023-04-29T14:56:04.781Z,98160.88
2023-04-29T14:58:38.484Z,98142.91
2023-04-29T15:01:09.278Z,98152.75
2023-04-29T15:03:43.753Z,98134.59
2023-04-29T15:06:15.477Z,98116.22
2023-04-29T15:08:43.564Z,98116.50
2023-04-29T15:11:11.427Z,98111.59
2023-04-29T15:13:41.306Z,98119.19
2023-04-29T15:16:11.051Z,98108.72
2023-04-29T15:18:40.163Z,98110.84
2023-04-29T15:21:07.976Z,98112.19
2023-04-29T15:23:37.893Z,98106.31
2023-04-29T15:26:07.162Z,98110.44
2023-04-29T15:28:35.056Z,98093.50
2023-04-29T15:31:04.766Z,98117.50
2023-04-29T15:33:33.120Z,98130.06
2023-04-29T15:36:03.035Z,98114.56
2023-04-29T15:38:30.915Z,98128.75
2023-04-29T15:41:00.993Z,98141.59
2023-04-29T15:43:28.865Z,98144.25
2023-04-29T15:45:59.715Z,98144.28
2023-04-29T15:48:28.799Z,98156.47
2023-04-29T15:50:56.994Z,98179.88
2023-04-29T15:53:26.038Z,98199.16
2023-04-29T15:55:56.124Z,98207.72
2023-04-29T15:58:23.972Z,98224.97
2023-04-29T16:00:52.766Z,98235.19
2023-04-29T16:03:21.203Z,98243.91
2023-04-29T16:05:52.273Z,98254.31
2023-04-29T16:08:20.099Z,98253.00
2023-04-29T16:10:52.214Z,98262.72
2023-04-29T16:13:19.949Z,98262.94
2023-04-29T16:15:48.050Z,98267.84
2023-04-29T16:18:19.823Z,98261.72
2023-04-29T16:20:53.506Z,98269.09
2023-04-29T16:23:21.189Z,98280.97
2023-04-29T16:25:51.048Z,98300.00
2023-04-29T16:28:18.723Z,98313.66
2023-04-29T16:30:46.842Z,98303.88
2023-04-29T16:33:16.299Z,98312.13
2023-04-29T16:35:44.183Z,98320.84
2023-04-29T16:38:12.953Z,98324.66
2023-04-29T16:40:42.337Z,98350.91
2023-04-29T16:43:14.325Z,98360.88
2023-04-29T16:45:45.012Z,98330.84
2023-04-29T16:48:16.481Z,98342.22
2023-04-29T16:50:44.260Z,98348.41
2023-04-29T16:53:13.504Z,98349.50
2023-04-29T16:55:41.344Z,98351.66
2023-04-29T16:58:09.326Z,98348.31
2023-04-29T17:00:41.068Z,98342.53
2023-04-29T17:03:08.654Z,98349.03
2023-04-29T17:05:36.221Z,98348.84
2023-04-29T17:08:04.298Z,98369.03
2023-04-29T17:10:31.940Z,98350.00
2023-04-29T17:12:59.569Z,98341.50
2023-04-29T17:15:27.133Z,98349.41
2023-04-29T17:17:56.050Z,98353.03
2023-04-29T17:20:23.664Z,98367.25
2023-04-29T17:22:54.592Z,98378.47
2023-04-29T17:25:23.510Z,98389.66
2023-04-29T17:27:51.026Z,98390.53
2023-04-29T17:30:19.028Z,98397.84
2023-04-29T17:32:49.607Z,98386.19
2023-04-29T17:35:18.904Z,98393.28
2023-04-29T17:37:46.880Z,98391.44
2023-04-29T17:40:14.485Z,98397.16
2023-04-29T17:42:44.135Z,98398.00
2023-04-29T17:45:16.623Z,98401.50
2023-04-29T17:47:46.070Z,98408.25
2023-04-29T17:50:13.671Z,98407.34
2023-04-29T17:52:42.535Z,98422.69
2023-04-29T17:55:10.554Z,98426.19
2023-04-29T17:57:40.394Z,98423.78
2023-04-29T18:00:09.364Z,98409.09
2023-04-29T18:02:37.349Z,98401.47
2023-04-29T18:05:12.556Z,98406.69
2023-04-29T18:07:40.118Z,98412.59
2023-04-29T18:10:09.859Z,98407.97
2023-04-29T18:12:40.102Z,98411.97
2023-04-29T18:15:09.693Z,98424.09
2023-04-29T18:17:37.418Z,98413.84
2023-04-29T18:20:06.246Z,98412.91
2023-04-29T18:22:33.963Z,98409.59
2023-04-29T18:25:01.643Z,98404.69
2023-04-29T18:27:30.563Z,98402.34
2023-04-29T18:30:00.263Z,98384.25
2023-04-29T18:32:27.808Z,98387.56
2023-04-29T18:34:59.584Z,98371.88
2023-04-29T18:37:27.454Z,98371.38
2023-04-29T18:39:55.670Z,98376.50
2023-04-29T18:42:23.791Z,98365.75
2023-04-29T18:44:52.776Z,98378.81
2023-04-29T18:47:21.238Z,98378.28
2023-04-29T18:49:48.810Z,98378.97
2023-04-29T18:52:16.353Z,98373.88
2023-04-29T18:54:43.872Z,98379.94
2023-04-29T18:57:11.506Z,98377.94
2023-04-29T18:59:39.395Z,98386.81
2023-04-29T19:02:08.883Z,98378.69
2023-04-29T19:04:36.422Z,98401.16
2023-04-29T19:07:06.054Z,98431.47
2023-04-29T19:09:33.702Z,98438.44
2023-04-29T19:12:05.824Z,98474.50
2023-04-29T19:14:37.505Z,98481.19
2023-04-29T19:17:05.291Z,98496.06
2023-04-29T19:19:34.291Z,98515.53
2023-04-29T19:22:01.831Z,98530.44
2023-04-29T19:24:29.467Z,98538.16
2023-04-29T19:26:57.028Z,98543.63
2023-04-29T19:29:24.671Z,98534.41
2023-04-29T19:31:52.628Z,98534.19
2023-04-29T19:34:20.802Z,98551.78
2023-04-29T19:36:49.690Z,98569.91
2023-04-29T19:39:18.428Z,98566.47
2023-04-29T19:41:46.358Z,98549.22
2023-04-29T19:44:13.850Z,98546.53
2023-04-29T19:46:41.700Z,98570.59
2023-04-29T19:49:09.207Z,98569.31
2023-04-29T19:51:37.018Z,98567.97
2023-04-29T19:54:07.010Z,98584.66
2023-04-29T19:56:34.600Z,98586.72
2023-04-29T19:59:02.167Z,98586.72
2023-04-29T20:01:29.732Z,98577.31
2023-04-29T20:03:57.313Z,98580.25
2023-04-29T20:06:24.867Z,98603.69
2023-04-29T20:08:52.449Z,98606.16
2023-04-29T20:11:21.353Z,98582.84
2023-04-29T20:13:51.130Z,98574.22
2023-04-29T20:16:18.903Z,98581.75
2023-04-29T20:18:47.155Z,98595.06
2023-04-29T20:21:14.707Z,98603.34
2023-04-29T20:23:43.229Z,98603.84
2023-04-29T20:26:11.012Z,98603.41
2023-04-29T20:28:42.309Z,98602.28
2023-04-29T20:31:10.034Z,98604.84
2023-04-29T20:33:37.551Z,98605.97
2023-04-29T20:36:06.807Z,98607.69
2023-04-29T20:38:35.344Z,98614.69
2023-04-29T20:41:03.088Z,98623.22
2023-04-29T20:43:34.089Z,98615.66
2023-04-29T20:46:03.101Z,98620.72
2023-04-29T20:48:30.736Z,98628.75
2023-04-29T20:50:58.256Z,98629.34
2023-04-29T20:53:26.902Z,98617.78
2023-04-29T20:55:55.909Z,98637.16
2023-04-29T20:58:23.503Z,98640.50
2023-04-29T21:00:50.998Z,98662.13
2023-04-29T21:03:22.176Z,98672.38
2023-04-29T21:05:53.614Z,98659.78
2023-04-29T21:08:21.169Z,98685.81
2023-04-29T21:10:48.670Z,98687.53
2023-04-29T21:13:17.741Z,98687.53
2023-04-29T21:15:45.461Z,98710.81
2023-04-29T21:18:13.068Z,98717.47
2023-04-29T21:20:41.959Z,98698.72
2023-04-29T21:23:09.483Z,98691.84
2023-04-29T21:25:37.004Z,98699.72
2023-04-29T21:28:04.917Z,98714.38
2023-04-29T21:30:32.429Z,98732.28
2023-04-29T21:32:59.955Z,98747.38
2023-04-29T21:35:27.514Z,98746.75
2023-04-29T21:37:56.344Z,98752.00
2023-04-29T21:40:26.439Z,98766.25
2023-04-29T21:42:55.192Z,98775.84
2023-04-29T21:45:22.869Z,98785.59
2023-04-29T21:47:50.666Z,98781.28
2023-04-29T21:50:18.382Z,98789.75
2023-04-29T21:52:45.971Z,98799.66
2023-04-29T21:55:14.832Z,98802.16
2023-04-29T21:57:45.117Z,98800.50
2023-04-29T22:00:28.617Z,98802.59
2023-04-29T22:02:56.271Z,98794.16
2023-04-29T22:05:24.880Z,98785.59
2023-04-29T22:07:52.398Z,98791.50
2023-04-29T22:10:21.302Z,98802.28
2023-04-29T22:12:48.894Z,98789.88
2023-04-29T22:15:27.314Z,98799.16
2023-04-29T22:17:56.877Z,98798.28
2023-04-29T22:20:24.563Z,98799.41
2023-04-29T22:22:52.268Z,98792.22
2023-04-29T22:25:21.827Z,98791.25
2023-04-29T22:27:49.669Z,98792.66
2023-04-29T22:30:18.125Z,98788.38
2023-04-29T22:32:45.776Z,98787.78
2023-04-29T22:35:13.403Z,98778.94
2023-04-29T22:37:40.948Z,98773.16
2023-04-29T22:40:09.321Z,98778.25
2023-04-29T22:42:39.462Z,98786.38
2023-04-29T22:45:07.648Z,98793.84
2023-04-29T22:47:35.266Z,98790.44
2023-04-29T22:50:02.845Z,98790.03
2023-04-29T22:52:32.708Z,98799.16
2023-04-29T22:55:00.523Z,98789.72
2023-04-29T22:57:28.079Z,98802.16
2023-04-29T22:59:57.272Z,98795.03
2023-04-29T23:02:28.866Z,98808.69
2023-04-29T23:04:56.962Z,98807.03
2023-04-29T23:07:24.709Z,98803.97
2023-04-29T23:09:52.780Z,98806.06
2023-04-29T23:12:21.027Z,98818.22
2023-04-29T23:14:48.712Z,98814.34
2023-04-29T23:17:17.577Z,98814.63
2023-04-29T23:19:45.219Z,98809.94
2023-04-29T23:22:12.770Z,98803.34
2023-04-29T23:24:40.298Z,98801.13
2023-04-29T23:27:07.806Z,98799.03
2023-04-29T23:29:35.384Z,98807.78
2023-04-29T23:32:03.256Z,98805.81
2023-04-29T23:34:32.104Z,98795.34
2023-04-29T23:37:01.348Z,98798.22
2023-04-29T23:39:29.090Z,98807.75
2023-04-29T23:41:56.625Z,98805.56
2023-04-29T23:44:25.173Z,98796.97
2023-04-29T23:46:53.601Z,98812.22
2023-04-29T23:49:21.119Z,98818.56
2023-04-29T23:51:50.148Z,98847.63
2023-04-29T23:54:17.679Z,98845.69
2023-04-29T23:56:45.224Z,98843.34
2023-04-29T23:59:12.767Z,98847.59
